createdAt,value
2018-09-02T00:01:27.465Z,5.80
2018-09-02T00:03:55.968Z,5.70
2018-09-02T00:06:24.699Z,5.67
2018-09-02T00:08:53.107Z,6.07
2018-09-02T00:11:21.611Z,5.93
2018-09-02T00:13:50.183Z,5.00
2018-09-02T00:16:18.764Z,4.90
2018-09-02T00:18:47.469Z,5.07
2018-09-02T00:21:16.355Z,4.80
2018-09-02T00:23:44.776Z,5.43
2018-09-02T00:26:13.407Z,5.47
2018-09-02T00:28:41.800Z,5.90
2018-09-02T00:31:10.276Z,4.93
2018-09-02T00:33:38.889Z,5.40
2018-09-02T00:36:07.348Z,5.40
2018-09-02T00:38:36.148Z,4.80
2018-09-02T00:41:04.405Z,5.03
2018-09-02T00:43:32.773Z,5.27
2018-09-02T00:46:01.369Z,4.83
2018-09-02T00:48:29.861Z,5.13
2018-09-02T00:50:58.547Z,4.83
2018-09-02T00:53:26.888Z,5.07
2018-09-02T00:55:55.397Z,4.20
2018-09-02T00:58:23.573Z,4.90
2018-09-02T01:00:51.846Z,4.63
2018-09-02T01:03:20.249Z,4.97
2018-09-02T01:05:49.623Z,4.80
2018-09-02T01:08:18.108Z,4.87
2018-09-02T01:10:47.143Z,5.27
2018-09-02T01:13:15.801Z,4.37
2018-09-02T01:15:44.735Z,5.30
2018-09-02T01:18:13.279Z,4.50
2018-09-02T01:20:41.731Z,5.20
2018-09-02T01:23:10.284Z,5.13
2018-09-02T01:25:39.305Z,5.20
2018-09-02T01:28:08.173Z,4.10
2018-09-02T01:30:36.800Z,4.77
2018-09-02T01:33:05.303Z,4.20
2018-09-02T01:35:34.668Z,4.37
2018-09-02T01:38:04.481Z,3.87
2018-09-02T01:40:33.585Z,4.07
2018-09-02T01:43:02.018Z,4.30
2018-09-02T01:45:30.486Z,4.77
2018-09-02T01:47:59.165Z,4.27
2018-09-02T01:50:27.848Z,3.33
2018-09-02T01:52:56.312Z,3.90
2018-09-02T01:55:24.760Z,4.07
2018-09-02T01:57:53.178Z,5.03
2018-09-02T02:00:21.332Z,4.20
2018-09-02T02:02:49.940Z,4.83
2018-09-02T02:05:18.311Z,4.60
2018-09-02T02:07:46.761Z,3.77
2018-09-02T02:10:15.058Z,3.83
2018-09-02T02:12:43.662Z,4.17
2018-09-02T02:15:12.052Z,4.37
2018-09-02T02:17:40.411Z,4.13
2018-09-02T02:20:08.681Z,4.77
2018-09-02T02:22:37.192Z,4.10
2018-09-02T02:25:05.631Z,4.23
2018-09-02T02:27:34.072Z,3.70
2018-09-02T02:30:02.614Z,4.10
2018-09-02T02:32:31.017Z,4.33
2018-09-02T02:34:59.592Z,3.67
2018-09-02T02:37:28.038Z,3.33
2018-09-02T02:39:56.637Z,3.87
2018-09-02T02:42:25.121Z,3.77
2018-09-02T02:44:53.942Z,3.83
2018-09-02T02:47:22.504Z,4.40
2018-09-02T02:49:50.860Z,3.63
2018-09-02T02:52:19.265Z,4.07
2018-09-02T02:54:47.617Z,4.63
2018-09-02T02:57:16.217Z,4.57
2018-09-02T02:59:44.707Z,3.97
2018-09-02T03:02:12.963Z,3.97
2018-09-02T03:04:41.619Z,4.67
2018-09-02T03:07:10.941Z,3.93
2018-09-02T03:09:39.544Z,4.47
2018-09-02T03:12:08.640Z,4.77
2018-09-02T03:14:37.034Z,4.37
2018-09-02T03:17:05.712Z,4.00
2018-09-02T03:19:34.171Z,3.63
2018-09-02T03:22:02.693Z,3.57
2018-09-02T03:24:31.424Z,3.57
2018-09-02T03:26:59.911Z,3.20
2018-09-02T03:29:28.621Z,4.07
2018-09-02T03:31:56.975Z,3.40
2018-09-02T03:34:25.479Z,3.10
2018-09-02T03:36:54.097Z,3.17
2018-09-02T03:39:23.567Z,3.70
2018-09-02T03:41:52.071Z,3.70
2018-09-02T03:44:20.835Z,4.47
2018-09-02T03:46:49.327Z,3.67
2018-09-02T03:49:18.015Z,4.33
2018-09-02T03:51:46.803Z,3.80
2018-09-02T03:54:15.280Z,3.63
2018-09-02T03:56:44.049Z,4.43
2018-09-02T03:59:12.700Z,3.50
2018-09-02T04:01:41.256Z,4.73
2018-09-02T04:04:09.519Z,4.10
2018-09-02T04:06:38.302Z,4.50
2018-09-02T04:09:08.563Z,4.00
2018-09-02T04:11:36.780Z,4.00
2018-09-02T04:14:05.363Z,4.10
2018-09-02T04:16:34.006Z,4.40
2018-09-02T04:19:02.818Z,4.07
2018-09-02T04:21:31.567Z,4.00
2018-09-02T04:24:00.068Z,3.90
2018-09-02T04:26:28.607Z,3.87
2018-09-02T04:28:57.005Z,4.00
2018-09-02T04:31:25.493Z,3.77
2018-09-02T04:33:54.186Z,3.07
2018-09-02T04:36:22.915Z,3.60
2018-09-02T04:38:51.744Z,3.10
2018-09-02T04:41:20.564Z,3.50
2018-09-02T04:43:49.053Z,2.87
2018-09-02T04:46:17.590Z,3.50
2018-09-02T04:48:46.087Z,3.23
2018-09-02T04:51:14.870Z,3.10
2018-09-02T04:53:43.530Z,2.83
2018-09-02T04:56:12.239Z,3.33
2018-09-02T04:58:41.441Z,3.20
2018-09-02T05:01:10.147Z,3.80
2018-09-02T05:03:38.640Z,4.47
2018-09-02T05:06:06.881Z,3.33
2018-09-02T05:08:35.575Z,3.90
2018-09-02T05:11:03.963Z,3.47
2018-09-02T05:13:32.320Z,3.60
2018-09-02T05:16:00.844Z,3.30
2018-09-02T05:18:29.403Z,3.20
2018-09-02T05:20:58.118Z,3.43
2018-09-02T05:23:26.982Z,3.47
2018-09-02T05:25:55.361Z,3.70
2018-09-02T05:28:23.825Z,3.60
2018-09-02T05:30:52.404Z,3.70
2018-09-02T05:33:21.188Z,3.37
2018-09-02T05:35:49.905Z,3.63
2018-09-02T05:38:18.292Z,3.77
2018-09-02T05:40:46.951Z,3.97
2018-09-02T05:43:15.259Z,4.63
2018-09-02T05:45:44.025Z,3.97
2018-09-02T05:48:12.709Z,4.73
2018-09-02T05:50:41.308Z,4.97
2018-09-02T05:53:09.493Z,4.53
2018-09-02T05:55:38.270Z,4.83
2018-09-02T05:58:06.930Z,4.30
2018-09-02T06:00:35.334Z,4.33
2018-09-02T06:03:03.968Z,4.53
2018-09-02T06:05:33.489Z,4.50
2018-09-02T06:08:02.093Z,5.07
2018-09-02T06:10:30.462Z,4.43
2018-09-02T06:12:59.057Z,4.57
2018-09-02T06:15:27.627Z,4.90
2018-09-02T06:17:56.424Z,4.53
2018-09-02T06:20:24.814Z,4.07
2018-09-02T06:22:53.063Z,5.00
2018-09-02T06:25:21.674Z,4.90
2018-09-02T06:27:50.249Z,4.10
2018-09-02T06:30:18.740Z,3.70
2018-09-02T06:32:47.514Z,4.00
2018-09-02T06:35:15.902Z,3.87
2018-09-02T06:37:44.271Z,3.83
2018-09-02T06:40:12.721Z,3.43
2018-09-02T06:42:41.365Z,4.50
2018-09-02T06:45:10.030Z,3.97
2018-09-02T06:47:38.608Z,4.60
2018-09-02T06:50:06.949Z,3.97
2018-09-02T06:52:35.269Z,5.03
2018-09-02T06:55:03.908Z,4.73
2018-09-02T06:57:32.444Z,4.73
2018-09-02T07:00:00.806Z,5.47
2018-09-02T07:02:29.402Z,5.50
2018-09-02T07:04:58.108Z,5.57
2018-09-02T07:07:26.528Z,4.87
2018-09-02T07:09:55.651Z,4.63
2018-09-02T07:12:24.160Z,4.17
2018-09-02T07:14:52.632Z,5.03
2018-09-02T07:17:21.326Z,4.60
2018-09-02T07:19:52.448Z,4.50
2018-09-02T07:22:21.162Z,4.93
2018-09-02T07:24:49.885Z,5.07
2018-09-02T07:27:18.326Z,4.87
2018-09-02T07:29:47.008Z,4.37
2018-09-02T07:32:15.706Z,4.60
2018-09-02T07:34:44.146Z,4.20
2018-09-02T07:37:12.444Z,5.07
2018-09-02T07:39:40.964Z,4.80
2018-09-02T07:42:09.633Z,5.33
2018-09-02T07:44:38.291Z,6.07
2018-09-02T07:47:06.821Z,5.47
2018-09-02T07:49:35.593Z,6.30
2018-09-02T07:52:04.048Z,4.43
2018-09-02T07:54:32.737Z,5.73
2018-09-02T07:57:01.323Z,4.97
2018-09-02T07:59:30.036Z,5.00
2018-09-02T08:01:58.708Z,4.97
2018-09-02T08:04:27.181Z,5.20
2018-09-02T08:06:55.671Z,3.93
2018-09-02T08:09:24.346Z,4.37
2018-09-02T08:11:52.634Z,3.90
2018-09-02T08:14:21.400Z,3.73
2018-09-02T08:16:49.710Z,4.07
2018-09-02T08:19:18.240Z,3.43
2018-09-02T08:21:46.759Z,3.60
2018-09-02T08:24:15.456Z,3.40
2018-09-02T08:26:43.881Z,3.63
2018-09-02T08:29:12.668Z,2.70
2018-09-02T08:31:41.312Z,3.37
2018-09-02T08:34:09.944Z,3.10
2018-09-02T08:36:38.682Z,3.00
2018-09-02T08:39:09.227Z,4.00
2018-09-02T08:41:37.579Z,3.20
2018-09-02T08:44:06.301Z,3.10
2018-09-02T08:46:34.669Z,3.03
2018-09-02T08:49:02.957Z,3.43
2018-09-02T08:51:31.408Z,3.87
2018-09-02T08:53:59.872Z,3.47
2018-09-02T08:56:28.188Z,3.33
2018-09-02T08:58:56.909Z,3.63
2018-09-02T09:01:25.386Z,3.03
2018-09-02T09:03:53.845Z,3.37
2018-09-02T09:06:22.937Z,3.20
2018-09-02T09:08:51.627Z,3.03
2018-09-02T09:11:20.070Z,3.23
2018-09-02T09:13:48.452Z,3.60
2018-09-02T09:16:17.146Z,3.13
2018-09-02T09:18:45.728Z,3.23
2018-09-02T09:21:14.212Z,3.17
2018-09-02T09:23:42.912Z,3.37
2018-09-02T09:26:11.599Z,3.50
2018-09-02T09:28:40.472Z,3.70
2018-09-02T09:31:09.507Z,3.87
2018-09-02T09:33:38.044Z,3.40
2018-09-02T09:36:06.935Z,3.17
2018-09-02T09:38:35.608Z,3.10
2018-09-02T09:41:04.251Z,3.00
2018-09-02T09:43:32.616Z,3.37
2018-09-02T09:46:01.137Z,3.10
2018-09-02T09:48:29.767Z,2.97
2018-09-02T09:50:58.464Z,2.57
2018-09-02T09:53:26.916Z,3.00
2018-09-02T09:55:55.414Z,3.10
2018-09-02T09:58:23.884Z,2.77
2018-09-02T10:00:52.489Z,2.70
2018-09-02T10:03:21.549Z,2.70
2018-09-02T10:05:49.774Z,3.10
2018-09-02T10:08:18.207Z,2.80
2018-09-02T10:10:46.696Z,3.40
2018-09-02T10:13:15.202Z,2.77
2018-09-02T10:15:43.781Z,2.53
2018-09-02T10:18:12.519Z,2.83
2018-09-02T10:20:41.167Z,2.53
2018-09-02T10:23:09.534Z,2.80
2018-09-02T10:25:37.897Z,3.33
2018-09-02T10:28:06.377Z,3.40
2018-09-02T10:30:35.180Z,2.90
2018-09-02T10:33:04.022Z,2.93
2018-09-02T10:35:32.540Z,2.63
2018-09-02T10:38:01.211Z,2.70
2018-09-02T10:40:29.833Z,2.50
2018-09-02T10:42:58.440Z,3.13
2018-09-02T10:45:27.109Z,2.73
2018-09-02T10:47:55.573Z,3.00
2018-09-02T10:50:24.371Z,3.07
2018-09-02T10:52:52.923Z,3.00
2018-09-02T10:55:21.889Z,2.80
2018-09-02T10:57:50.428Z,4.03
2018-09-02T11:00:19.275Z,4.50
2018-09-02T11:02:47.997Z,3.17
2018-09-02T11:05:16.586Z,3.03
2018-09-02T11:07:45.504Z,3.33
2018-09-02T11:10:14.198Z,3.93
2018-09-02T11:12:42.625Z,3.70
2018-09-02T11:15:11.334Z,2.63
2018-09-02T11:17:39.966Z,3.07
2018-09-02T11:20:09.310Z,3.60
2018-09-02T11:22:37.480Z,2.83
2018-09-02T11:25:06.600Z,3.60
2018-09-02T11:27:35.378Z,2.90
2018-09-02T11:30:04.015Z,3.27
2018-09-02T11:32:33.582Z,2.63
2018-09-02T11:35:02.073Z,2.60
2018-09-02T11:37:30.620Z,3.50
2018-09-02T11:39:59.218Z,3.07
2018-09-02T11:42:27.541Z,3.50
2018-09-02T11:44:56.532Z,2.90
2018-09-02T11:47:24.749Z,3.03
2018-09-02T11:49:53.509Z,3.40
2018-09-02T11:52:21.721Z,3.03
2018-09-02T11:54:49.872Z,3.23
2018-09-02T11:57:18.476Z,2.40
2018-09-02T11:59:47.324Z,2.87
2018-09-02T12:02:15.869Z,2.87
2018-09-02T12:04:44.382Z,3.23
2018-09-02T12:07:13.008Z,2.87
2018-09-02T12:09:41.843Z,2.47
2018-09-02T12:12:10.507Z,3.00
2018-09-02T12:14:38.929Z,3.07
2018-09-02T12:17:07.409Z,3.07
2018-09-02T12:19:35.659Z,2.87
2018-09-02T12:22:04.572Z,2.50
2018-09-02T12:24:32.986Z,3.00
2018-09-02T12:27:01.299Z,2.80
2018-09-02T12:29:29.791Z,3.13
2018-09-02T12:31:58.656Z,3.33
2018-09-02T12:34:27.322Z,2.73
2018-09-02T12:36:55.834Z,3.07
2018-09-02T12:39:24.401Z,2.80
2018-09-02T12:41:52.833Z,2.70
2018-09-02T12:44:21.280Z,3.20
2018-09-02T12:46:49.625Z,2.70
2018-09-02T12:49:18.033Z,3.10
2018-09-02T12:51:46.600Z,3.43
2018-09-02T12:54:15.059Z,3.00
2018-09-02T12:56:43.767Z,3.30
2018-09-02T12:59:12.269Z,3.20
2018-09-02T13:01:40.936Z,2.70
2018-09-02T13:04:09.316Z,2.90
2018-09-02T13:06:37.728Z,3.43
2018-09-02T13:09:07.351Z,3.20
2018-09-02T13:11:35.796Z,3.53
2018-09-02T13:14:04.475Z,3.13
2018-09-02T13:16:33.051Z,2.97
2018-09-02T13:19:01.748Z,3.20
2018-09-02T13:21:30.569Z,2.93
2018-09-02T13:23:59.110Z,3.33
2018-09-02T13:26:28.694Z,3.13
2018-09-02T13:28:57.420Z,3.23
2018-09-02T13:31:26.037Z,3.80
2018-09-02T13:33:55.037Z,2.97
2018-09-02T13:36:23.708Z,2.83
2018-09-02T13:38:52.056Z,3.20
2018-09-02T13:41:20.444Z,3.47
2018-09-02T13:43:49.139Z,2.73
2018-09-02T13:46:17.696Z,2.50
2018-09-02T13:48:46.101Z,3.87
2018-09-02T13:51:14.816Z,3.13
2018-09-02T13:53:43.501Z,3.53
2018-09-02T13:56:11.950Z,3.43
2018-09-02T13:58:40.529Z,3.23
2018-09-02T14:01:09.099Z,3.20
2018-09-02T14:03:37.932Z,3.60
2018-09-02T14:06:06.491Z,3.37
2018-09-02T14:08:35.289Z,3.20
2018-09-02T14:11:04.387Z,3.13
2018-09-02T14:13:32.885Z,3.37
2018-09-02T14:16:01.444Z,3.27
2018-09-02T14:18:30.014Z,2.97
2018-09-02T14:20:58.566Z,3.00
2018-09-02T14:23:27.296Z,3.13
2018-09-02T14:25:55.818Z,3.17
2018-09-02T14:28:24.413Z,3.03
2018-09-02T14:30:52.939Z,3.07
2018-09-02T14:33:21.355Z,2.97
2018-09-02T14:35:50.130Z,3.63
2018-09-02T14:38:19.428Z,3.43
2018-09-02T14:40:47.866Z,3.37
2018-09-02T14:43:16.975Z,3.40
2018-09-02T14:45:45.572Z,3.60
2018-09-02T14:48:13.850Z,3.17
2018-09-02T14:50:42.485Z,3.47
2018-09-02T14:53:11.104Z,3.37
2018-09-02T14:55:39.597Z,3.73
2018-09-02T14:58:08.392Z,3.70
2018-09-02T15:00:37.486Z,3.60
2018-09-02T15:03:05.876Z,3.87
2018-09-02T15:05:34.541Z,3.57
2018-09-02T15:08:03.166Z,3.53
2018-09-02T15:10:31.821Z,3.30
2018-09-02T15:13:00.428Z,3.10
2018-09-02T15:15:29.120Z,3.57
2018-09-02T15:17:57.587Z,3.20
2018-09-02T15:20:26.265Z,3.03
2018-09-02T15:22:54.829Z,2.97
2018-09-02T15:25:23.215Z,3.43
2018-09-02T15:27:51.836Z,3.80
2018-09-02T15:30:20.925Z,3.33
2018-09-02T15:32:49.584Z,3.47
2018-09-02T15:35:18.174Z,3.47
2018-09-02T15:37:46.480Z,3.20
2018-09-02T15:40:15.044Z,2.87
2018-09-02T15:42:43.405Z,2.77
2018-09-02T15:45:11.996Z,3.13
2018-09-02T15:47:40.383Z,2.80
2018-09-02T15:50:09.007Z,2.80
2018-09-02T15:52:37.614Z,2.40
2018-09-02T15:55:06.226Z,2.93
2018-09-02T15:57:34.898Z,2.63
2018-09-02T16:00:03.956Z,2.90
2018-09-02T16:02:32.591Z,3.17
2018-09-02T16:05:01.268Z,2.97
2018-09-02T16:07:30.906Z,3.10
2018-09-02T16:10:00.811Z,2.80
2018-09-02T16:12:29.305Z,2.87
2018-09-02T16:14:57.604Z,2.90
2018-09-02T16:17:25.898Z,2.87
2018-09-02T16:19:54.264Z,2.97
2018-09-02T16:22:22.407Z,3.37
2018-09-02T16:24:50.460Z,2.73
2018-09-02T16:27:18.553Z,3.30
2018-09-02T16:29:46.784Z,3.00
2018-09-02T16:32:14.798Z,3.07
2018-09-02T16:34:43.030Z,3.20
2018-09-02T16:37:11.273Z,2.90
2018-09-02T16:39:39.676Z,3.10
2018-09-02T16:42:07.733Z,2.87
2018-09-02T16:44:35.905Z,2.80
2018-09-02T16:47:04.253Z,3.20
2018-09-02T16:49:32.338Z,2.83
2018-09-02T16:52:00.408Z,3.33
2018-09-02T16:54:28.574Z,2.83
2018-09-02T16:56:56.629Z,3.23
2018-09-02T16:59:24.714Z,3.37
2018-09-02T17:01:52.780Z,3.50
2018-09-02T17:04:21.792Z,2.90
2018-09-02T17:06:49.891Z,3.20
2018-09-02T17:09:17.994Z,3.30
2018-09-02T17:11:46.103Z,3.03
2018-09-02T17:14:14.224Z,3.40
2018-09-02T17:16:42.463Z,3.40
2018-09-02T17:19:20.749Z,3.00
2018-09-02T17:21:48.882Z,3.13
2018-09-02T17:24:17.001Z,3.07
2018-09-02T17:26:45.067Z,3.27
2018-09-02T17:29:13.189Z,3.40
2018-09-02T17:31:41.293Z,2.70
2018-09-02T17:34:13.658Z,3.07
2018-09-02T17:36:41.801Z,3.63
2018-09-02T17:39:11.644Z,3.43
2018-09-02T17:41:40.573Z,3.33
2018-09-02T17:44:08.752Z,3.43
2018-09-02T17:46:45.441Z,3.33
2018-09-02T17:49:13.641Z,3.17
2018-09-02T17:51:41.784Z,3.40
2018-09-02T17:54:10.052Z,3.90
2018-09-02T17:56:38.181Z,3.40
2018-09-02T17:59:06.282Z,3.03
2018-09-02T18:01:34.530Z,3.27
2018-09-02T18:04:02.569Z,3.93
2018-09-02T18:06:30.648Z,3.47
2018-09-02T18:08:58.768Z,3.30
2018-09-02T18:11:26.851Z,3.67
2018-09-02T18:13:54.969Z,4.07
2018-09-02T18:16:23.131Z,3.90
2018-09-02T18:18:51.401Z,3.50
2018-09-02T18:21:19.902Z,3.77
2018-09-02T18:23:48.254Z,3.47
2018-09-02T18:26:16.321Z,4.20
2018-09-02T18:28:46.080Z,2.97
2018-09-02T18:31:14.237Z,3.03
2018-09-02T18:33:42.708Z,3.40
2018-09-02T18:36:11.186Z,3.23
2018-09-02T18:38:39.329Z,3.30
2018-09-02T18:41:07.710Z,3.03
2018-09-02T18:43:35.965Z,3.70
2018-09-02T18:46:04.226Z,2.80
2018-09-02T18:48:32.673Z,3.37
2018-09-02T18:51:01.120Z,3.77
2018-09-02T18:53:29.500Z,3.37
2018-09-02T18:55:57.722Z,3.63
2018-09-02T18:58:25.891Z,3.13
2018-09-02T19:00:54.314Z,3.47
2018-09-02T19:03:22.704Z,3.67
2018-09-02T19:05:51.059Z,3.90
2018-09-02T19:08:19.413Z,3.70
2018-09-02T19:10:48.300Z,4.47
2018-09-02T19:13:16.689Z,3.63
2018-09-02T19:15:45.103Z,3.90
2018-09-02T19:18:13.525Z,3.47
2018-09-02T19:20:42.364Z,3.37
2018-09-02T19:23:10.801Z,3.40
2018-09-02T19:25:39.267Z,3.87
2018-09-02T19:28:07.415Z,3.73
2018-09-02T19:30:35.476Z,4.20
2018-09-02T19:33:03.895Z,3.40
2018-09-02T19:35:32.035Z,4.13
2018-09-02T19:38:00.422Z,3.53
2018-09-02T19:40:28.882Z,3.67
2018-09-02T19:42:57.639Z,3.63
2018-09-02T19:45:25.762Z,3.47
2018-09-02T19:47:53.910Z,3.60
2018-09-02T19:50:22.093Z,3.43
2018-09-02T19:52:50.342Z,3.10
2018-09-02T19:55:18.446Z,4.00
2018-09-02T19:57:46.851Z,3.50
2018-09-02T20:00:16.273Z,3.40
2018-09-02T20:02:44.462Z,3.47
2018-09-02T20:05:12.755Z,3.97
2018-09-02T20:07:40.867Z,4.10
2018-09-02T20:10:09.940Z,3.73
2018-09-02T20:12:38.221Z,3.70
2018-09-02T20:15:06.730Z,2.87
2018-09-02T20:17:34.910Z,3.20
2018-09-02T20:20:03.157Z,3.37
2018-09-02T20:22:31.325Z,3.70
2018-09-02T20:24:59.405Z,3.73
2018-09-02T20:27:27.509Z,3.40
2018-09-02T20:29:55.673Z,3.67
2018-09-02T20:32:23.787Z,3.80
2018-09-02T20:34:51.973Z,3.40
2018-09-02T20:37:20.067Z,3.23
2018-09-02T20:39:48.131Z,3.23
2018-09-02T20:42:16.540Z,3.23
2018-09-02T20:44:44.607Z,3.80
2018-09-02T20:47:12.701Z,3.73
2018-09-02T20:49:40.762Z,3.50
2018-09-02T20:52:08.868Z,3.20
2018-09-02T20:54:36.929Z,3.40
2018-09-02T20:57:05.017Z,3.23
2018-09-02T20:59:33.283Z,3.20
2018-09-02T21:02:01.410Z,3.87
2018-09-02T21:04:29.584Z,3.77
2018-09-02T21:06:57.690Z,3.53
2018-09-02T21:09:25.897Z,3.17
2018-09-02T21:11:54.077Z,3.50
2018-09-02T21:14:22.208Z,3.47
2018-09-02T21:16:50.401Z,2.87
2018-09-02T21:19:18.490Z,3.07
2018-09-02T21:21:46.576Z,3.20
2018-09-02T21:24:14.699Z,3.30
2018-09-02T21:26:42.777Z,2.87
2018-09-02T21:29:10.858Z,3.07
2018-09-02T21:31:38.949Z,2.77
2018-09-02T21:34:07.005Z,3.07
2018-09-02T21:36:35.093Z,2.90
2018-09-02T21:39:03.756Z,3.37
2018-09-02T21:41:31.835Z,3.50
2018-09-02T21:43:59.966Z,3.07
2018-09-02T21:46:28.109Z,3.13
2018-09-02T21:48:56.225Z,3.23
2018-09-02T21:51:24.408Z,3.37
2018-09-02T21:53:52.468Z,3.63
2018-09-02T21:56:20.646Z,3.67
2018-09-02T21:58:48.738Z,3.90
2018-09-02T22:01:16.861Z,3.90
2018-09-02T22:03:44.988Z,3.60
2018-09-02T22:06:13.030Z,4.33
2018-09-02T22:08:41.106Z,4.10
2018-09-02T22:11:09.199Z,3.53
2018-09-02T22:13:37.291Z,3.60
2018-09-02T22:16:05.606Z,3.97
2018-09-02T22:18:33.704Z,3.47
2018-09-02T22:21:01.789Z,3.50
2018-09-02T22:23:29.871Z,3.27
2018-09-02T22:25:58.679Z,3.47
2018-09-02T22:28:26.740Z,3.37
2018-09-02T22:30:54.830Z,3.70
2018-09-02T22:33:22.912Z,3.53
2018-09-02T22:35:51.009Z,4.27
2018-09-02T22:38:19.161Z,3.73
2018-09-02T22:40:47.283Z,3.00
2018-09-02T22:43:15.349Z,3.27
2018-09-02T22:45:43.413Z,3.40
2018-09-02T22:48:11.597Z,3.17
2018-09-02T22:50:39.646Z,2.97
2018-09-02T22:53:07.780Z,3.60
2018-09-02T22:55:35.856Z,3.90
2018-09-02T22:58:03.908Z,3.53
2018-09-02T23:00:32.074Z,3.47
2018-09-02T23:03:00.263Z,3.50
2018-09-02T23:05:28.328Z,4.03
2018-09-02T23:07:56.390Z,3.50
2018-09-02T23:10:24.508Z,3.70
2018-09-02T23:12:52.805Z,3.63
2018-09-02T23:15:20.864Z,3.53
2018-09-02T23:17:49.215Z,3.40
2018-09-02T23:20:17.401Z,3.63
2018-09-02T23:22:45.573Z,4.10
2018-09-02T23:25:13.688Z,3.63
2018-09-02T23:27:41.726Z,4.03
2018-09-02T23:30:09.832Z,3.50
2018-09-02T23:32:37.904Z,3.63
2018-09-02T23:35:06.024Z,4.33
2018-09-02T23:37:34.152Z,4.07
2018-09-02T23:40:02.209Z,3.07
2018-09-02T23:42:30.365Z,3.73
2018-09-02T23:44:58.465Z,3.70
2018-09-02T23:47:26.609Z,3.63
2018-09-02T23:49:54.804Z,3.47
2018-09-02T23:52:22.917Z,3.90
2018-09-02T23:54:51.032Z,3.70
2018-09-02T23:57:19.161Z,3.67
2018-09-02T23:59:47.225Z,4.10
